Time;durP1;ratioP1;P1;durP2;ratioP2;P2;SDS_P1;SDS_P2;PMS_P1;PMS_P2;Temp;Humidity;BMP_temperature;BMP_pressure;BME280_temperature;BME280_humidity;BME280_pressure;Samples;Min_cycle;Max_cycle;Signal;HPM_P1;HPM_P2
2022/12/18 00:00:41;;;;;;;96.45;26.13;;;;;;;;;;5050906;28;20226;-72
2022/12/18 00:03:09;;;;;;;109.65;29.85;;;;;;;;;;5051676;28;20564;-72
2022/12/18 00:05:36;;;;;;;114.60;31.27;;;;;;;;;;5051743;28;20252;-72
2022/12/18 00:08:03;;;;;;;116.60;34.08;;;;;;;;;;5051474;28;20216;-73
2022/12/18 00:10:30;;;;;;;112.20;30.10;;;;;;;;;;5046360;28;20706;-72
2022/12/18 00:12:57;;;;;;;105.60;28.63;;;;;;;;;;5050948;28;20205;-72
2022/12/18 00:15:26;;;;;;;120.00;32.35;;;;;;;;;;5051201;28;20202;-72
2022/12/18 00:17:53;;;;;;;111.43;30.73;;;;;;;;;;5051288;28;20220;-72
2022/12/18 00:20:25;;;;;;;109.95;29.05;;;;;;;;;;5050844;28;20229;-72
2022/12/18 00:22:52;;;;;;;107.25;27.48;;;;;;;;;;5051487;28;20209;-72
2022/12/18 00:25:19;;;;;;;110.47;30.20;;;;;;;;;;5051267;28;20231;-72
2022/12/18 00:27:46;;;;;;;113.30;32.17;;;;;;;;;;5050311;28;20206;-72
2022/12/18 00:30:14;;;;;;;100.97;27.02;;;;;;;;;;5049872;28;20300;-72
2022/12/18 00:32:42;;;;;;;114.15;31.77;;;;;;;;;;5050907;28;20205;-72
2022/12/18 00:35:09;;;;;;;115.68;33.70;;;;;;;;;;5051435;28;20210;-72
2022/12/18 00:37:36;;;;;;;108.65;30.67;;;;;;;;;;5051080;28;20211;-72
2022/12/18 00:40:04;;;;;;;133.77;34.25;;;;;;;;;;5050199;28;20230;-72
2022/12/18 00:45:16;;;;;;;106.68;25.88;;;;;;;;;;5051151;28;20228;-72
2022/12/18 00:47:44;;;;;;;107.35;32.45;;;;;;;;;;5051024;28;20205;-72
2022/12/18 00:50:12;;;;;;;108.45;31.13;;;;;;;;;;5052380;28;20236;-72
2022/12/18 00:52:39;;;;;;;107.45;29.65;;;;;;;;;;5054584;28;20224;-72
2022/12/18 00:55:06;;;;;;;113.93;31.13;;;;;;;;;;5054908;28;20198;-72
2022/12/18 00:57:33;;;;;;;107.70;28.27;;;;;;;;;;5054676;28;20228;-72
2022/12/18 01:00:00;;;;;;;115.28;30.98;;;;;;;;;;5054383;28;20222;-72
2022/12/18 01:02:27;;;;;;;112.53;31.15;;;;;;;;;;5055052;28;20644;-72
2022/12/18 01:04:56;;;;;;;98.78;27.92;;;;;;;;;;5054959;28;20247;-72
2022/12/18 01:07:23;;;;;;;104.30;30.17;;;;;;;;;;5054942;28;20208;-72
2022/12/18 01:09:50;;;;;;;126.90;29.90;;;;;;;;;;5053517;28;20209;-72
2022/12/18 01:12:17;;;;;;;107.35;31.00;;;;;;;;;;5054055;28;20206;-72
2022/12/18 01:14:44;;;;;;;125.15;29.60;;;;;;;;;;5063600;28;20212;-72
2022/12/18 01:17:11;;;;;;;113.75;29.95;;;;;;;;;;5074813;28;20215;-72
2022/12/18 01:19:39;;;;;;;104.90;29.67;;;;;;;;;;5073572;28;20209;-72
2022/12/18 01:22:07;;;;;;;109.40;30.63;;;;;;;;;;5074403;28;20205;-72
2022/12/18 01:24:34;;;;;;;107.75;27.75;;;;;;;;;;5074513;28;20592;-72
2022/12/18 01:27:01;;;;;;;109.30;27.20;;;;;;;;;;5074346;28;20251;-72
2022/12/18 01:29:28;;;;;;;103.63;29.50;;;;;;;;;;5073426;28;20205;-72
2022/12/18 01:31:56;;;;;;;106.25;27.85;;;;;;;;;;5073649;28;20604;-72
2022/12/18 01:34:24;;;;;;;105.78;30.98;;;;;;;;;;5074461;28;20592;-72
2022/12/18 01:36:51;;;;;;;106.00;28.48;;;;;;;;;;5073863;28;20209;-72
2022/12/18 01:39:20;;;;;;;105.57;27.73;;;;;;;;;;5073328;28;20382;-72
2022/12/18 01:42:02;;;;;;;106.47;29.98;;;;;;;;;;5073630;28;20236;-72
2022/12/18 01:45:03;;;;;;;117.00;28.98;;;;;;;;;;5073055;28;20216;-72
2022/12/18 01:47:31;;;;;;;102.18;25.42;;;;;;;;;;5009259;28;20318;-72
2022/12/18 01:50:00;;;;;;;106.95;27.00;;;;;;;;;;5010817;28;20259;-72
2022/12/18 01:52:27;;;;;;;108.78;29.30;;;;;;;;;;5011700;28;20207;-73
2022/12/18 01:54:57;;;;;;;108.22;28.00;;;;;;;;;;5011818;28;20211;-72
2022/12/18 01:57:24;;;;;;;121.28;30.70;;;;;;;;;;5011357;28;20207;-72
2022/12/18 01:59:53;;;;;;;113.35;30.58;;;;;;;;;;5010050;28;20570;-72
2022/12/18 02:02:20;;;;;;;99.70;26.13;;;;;;;;;;5011888;28;20203;-72
2022/12/18 02:04:48;;;;;;;103.50;28.00;;;;;;;;;;5011688;28;20422;-72
2022/12/18 02:07:18;;;;;;;102.47;27.13;;;;;;;;;;5011322;28;20230;-72
2022/12/18 02:09:48;;;;;;;95.47;26.42;;;;;;;;;;5010760;28;20714;-72
2022/12/18 02:12:19;;;;;;;104.43;27.63;;;;;;;;;;5010791;28;20213;-72
2022/12/18 02:14:50;;;;;;;107.32;27.00;;;;;;;;;;5011789;28;20214;-72
2022/12/18 02:17:19;;;;;;;111.40;30.70;;;;;;;;;;5009037;28;20623;-72
2022/12/18 02:19:53;;;;;;;103.82;28.05;;;;;;;;;;5051968;28;20670;-72
2022/12/18 02:22:26;;;;;;;100.93;27.95;;;;;;;;;;5053549;28;20209;-72
2022/12/18 02:24:59;;;;;;;110.22;29.25;;;;;;;;;;5053384;28;20224;-72
2022/12/18 02:27:28;;;;;;;113.05;28.48;;;;;;;;;;5053436;28;20578;-72
2022/12/18 02:29:56;;;;;;;108.18;28.70;;;;;;;;;;5052361;28;20594;-72
2022/12/18 02:32:27;;;;;;;107.45;30.20;;;;;;;;;;5051638;28;20205;-72
2022/12/18 02:34:55;;;;;;;109.72;27.77;;;;;;;;;;5073328;28;20231;-72
2022/12/18 02:37:23;;;;;;;111.25;30.02;;;;;;;;;;5073442;28;20211;-72
2022/12/18 02:39:51;;;;;;;112.63;28.60;;;;;;;;;;5071777;28;20221;-73
2022/12/18 02:42:19;;;;;;;107.00;29.70;;;;;;;;;;5072864;28;20588;-72
2022/12/18 02:44:49;;;;;;;110.55;28.25;;;;;;;;;;5073027;28;20204;-72
2022/12/18 02:47:17;;;;;;;117.95;29.95;;;;;;;;;;5072893;28;20233;-72
2022/12/18 02:49:48;;;;;;;109.70;28.23;;;;;;;;;;5066048;28;20208;-72
2022/12/18 02:52:19;;;;;;;113.55;30.15;;;;;;;;;;5052766;28;20320;-72
2022/12/18 02:54:53;;;;;;;117.75;28.50;;;;;;;;;;5052979;28;20209;-72
2022/12/18 02:57:25;;;;;;;103.80;29.15;;;;;;;;;;5051975;28;20210;-72
2022/12/18 02:59:58;;;;;;;110.93;31.00;;;;;;;;;;5051635;28;20708;-72
2022/12/18 03:02:27;;;;;;;110.50;28.60;;;;;;;;;;5052725;28;20212;-72
2022/12/18 03:04:57;;;;;;;103.63;29.08;;;;;;;;;;5052959;28;20212;-72
2022/12/18 03:07:30;;;;;;;109.22;27.08;;;;;;;;;;5052631;28;20222;-72
2022/12/18 03:09:57;;;;;;;105.85;29.05;;;;;;;;;;5051899;28;20218;-72
2022/12/18 03:12:28;;;;;;;101.75;25.48;;;;;;;;;;5051313;28;20209;-72
2022/12/18 03:14:59;;;;;;;118.20;30.88;;;;;;;;;;5052811;28;20210;-72
2022/12/18 03:17:28;;;;;;;103.70;28.15;;;;;;;;;;5052449;28;20293;-72
2022/12/18 03:19:58;;;;;;;116.95;27.48;;;;;;;;;;5050624;28;20598;-72
2022/12/18 03:22:26;;;;;;;118.82;29.55;;;;;;;;;;5054847;28;20232;-72
2022/12/18 03:24:53;;;;;;;99.13;27.27;;;;;;;;;;5071688;28;20220;-72
2022/12/18 03:27:22;;;;;;;105.95;29.27;;;;;;;;;;5072192;28;20231;-72
2022/12/18 03:29:51;;;;;;;108.13;29.42;;;;;;;;;;5071442;28;20209;-72
2022/12/18 03:32:23;;;;;;;101.25;28.58;;;;;;;;;;5072088;28;20205;-72
2022/12/18 03:34:51;;;;;;;107.32;28.08;;;;;;;;;;5071897;28;20205;-72
2022/12/18 03:37:19;;;;;;;107.63;26.25;;;;;;;;;;5072441;28;20207;-72
2022/12/18 03:39:46;;;;;;;105.07;25.77;;;;;;;;;;5071084;28;20209;-72
2022/12/18 03:42:17;;;;;;;112.22;29.42;;;;;;;;;;5071525;28;20389;-72
2022/12/18 03:44:47;;;;;;;108.30;26.38;;;;;;;;;;5071484;28;20206;-72
2022/12/18 03:47:16;;;;;;;105.32;26.60;;;;;;;;;;5072057;28;20231;-72
2022/12/18 03:49:49;;;;;;;109.97;26.60;;;;;;;;;;5070931;28;20211;-72
2022/12/18 03:52:20;;;;;;;107.38;28.90;;;;;;;;;;5070759;28;20205;-72
2022/12/18 03:54:47;;;;;;;105.45;27.75;;;;;;;;;;5068806;28;20559;-72
2022/12/18 03:57:16;;;;;;;106.35;25.85;;;;;;;;;;5071484;28;20201;-72
2022/12/18 03:59:44;;;;;;;107.50;28.00;;;;;;;;;;5070491;28;20201;-72
2022/12/18 04:02:11;;;;;;;99.93;26.27;;;;;;;;;;5071373;28;20585;-72
2022/12/18 04:04:40;;;;;;;104.88;26.83;;;;;;;;;;5071848;28;20205;-72
2022/12/18 04:07:09;;;;;;;104.25;27.85;;;;;;;;;;5071657;28;20229;-72
2022/12/18 04:09:37;;;;;;;101.07;25.60;;;;;;;;;;5070833;28;20201;-72
2022/12/18 04:12:04;;;;;;;98.85;25.65;;;;;;;;;;5070442;28;20211;-72
2022/12/18 04:14:35;;;;;;;112.95;29.45;;;;;;;;;;5070930;28;20209;-72
2022/12/18 04:17:02;;;;;;;102.90;27.92;;;;;;;;;;5071612;28;20309;-72
2022/12/18 04:19:29;;;;;;;101.97;25.55;;;;;;;;;;5070628;28;20211;-72
2022/12/18 04:21:56;;;;;;;105.68;26.48;;;;;;;;;;5071433;28;20225;-72
2022/12/18 04:24:25;;;;;;;95.15;25.15;;;;;;;;;;5071371;28;20228;-72
2022/12/18 04:26:52;;;;;;;94.70;24.48;;;;;;;;;;5067212;28;20233;-72
2022/12/18 04:29:19;;;;;;;101.30;25.10;;;;;;;;;;5070733;28;20580;-73
2022/12/18 04:31:46;;;;;;;97.95;25.48;;;;;;;;;;5071324;28;20225;-72
2022/12/18 04:34:13;;;;;;;99.65;25.05;;;;;;;;;;5071524;28;20776;-72
2022/12/18 04:36:40;;;;;;;106.80;27.67;;;;;;;;;;5071466;28;20205;-72
2022/12/18 04:39:07;;;;;;;105.30;23.83;;;;;;;;;;5070225;28;20212;-72
2022/12/18 04:41:36;;;;;;;99.25;23.48;;;;;;;;;;5070572;28;20593;-72
2022/12/18 04:44:03;;;;;;;96.32;24.90;;;;;;;;;;5071173;28;20676;-72
2022/12/18 04:46:30;;;;;;;98.05;24.27;;;;;;;;;;5071228;28;20229;-72
2022/12/18 04:48:57;;;;;;;102.03;24.02;;;;;;;;;;5070643;28;20303;-72
2022/12/18 04:51:24;;;;;;;103.53;25.50;;;;;;;;;;5070967;28;20743;-72
2022/12/18 04:53:51;;;;;;;97.88;24.60;;;;;;;;;;5071589;28;20205;-72
2022/12/18 04:56:19;;;;;;;92.03;23.02;;;;;;;;;;5070760;28;20202;-72
2022/12/18 04:58:47;;;;;;;97.10;23.67;;;;;;;;;;5067152;28;20202;-72
2022/12/18 05:01:15;;;;;;;112.72;25.98;;;;;;;;;;5070044;28;20221;-72
2022/12/18 05:03:42;;;;;;;94.47;22.65;;;;;;;;;;5071350;28;20212;-72
2022/12/18 05:06:10;;;;;;;99.85;23.17;;;;;;;;;;5070516;28;20227;-72
2022/12/18 05:08:37;;;;;;;102.93;23.73;;;;;;;;;;5070165;28;20201;-72
2022/12/18 05:11:05;;;;;;;103.60;23.65;;;;;;;;;;5070737;28;20717;-72
2022/12/18 05:13:35;;;;;;;100.05;22.40;;;;;;;;;;5070789;28;20205;-72
2022/12/18 05:16:04;;;;;;;92.88;20.70;;;;;;;;;;5070763;28;20296;-72
2022/12/18 05:18:32;;;;;;;96.40;25.17;;;;;;;;;;5070696;28;20209;-72
2022/12/18 05:20:59;;;;;;;102.28;27.15;;;;;;;;;;5070594;28;20263;-72
2022/12/18 05:23:26;;;;;;;93.68;22.25;;;;;;;;;;5070748;28;20553;-72
2022/12/18 05:25:54;;;;;;;100.50;23.40;;;;;;;;;;5070858;28;20575;-72
2022/12/18 05:28:22;;;;;;;96.03;23.25;;;;;;;;;;5070536;28;20221;-72
2022/12/18 05:30:50;;;;;;;95.00;22.92;;;;;;;;;;5066976;28;20705;-72
2022/12/18 05:33:19;;;;;;;93.45;24.20;;;;;;;;;;5070938;28;20209;-72
2022/12/18 05:35:46;;;;;;;93.43;25.13;;;;;;;;;;5071951;28;20201;-72
2022/12/18 05:38:13;;;;;;;96.18;23.60;;;;;;;;;;5074526;28;20577;-72
2022/12/18 05:40:43;;;;;;;92.63;22.10;;;;;;;;;;5073380;28;20229;-72
2022/12/18 05:43:10;;;;;;;99.00;23.58;;;;;;;;;;5074525;28;20616;-72
2022/12/18 05:45:38;;;;;;;99.40;23.75;;;;;;;;;;5074403;28;20201;-72
2022/12/18 05:48:06;;;;;;;102.40;25.40;;;;;;;;;;5074041;28;20234;-72
2022/12/18 05:50:36;;;;;;;105.70;24.83;;;;;;;;;;5073639;28;20229;-72
2022/12/18 05:53:05;;;;;;;97.43;23.05;;;;;;;;;;5074158;28;20201;-72
2022/12/18 05:55:34;;;;;;;96.95;21.15;;;;;;;;;;5074201;28;20205;-72
2022/12/18 05:58:01;;;;;;;90.03;22.63;;;;;;;;;;5073998;28;20205;-72
2022/12/18 06:00:28;;;;;;;91.15;21.17;;;;;;;;;;5072968;28;20625;-72
2022/12/18 06:02:55;;;;;;;91.47;20.73;;;;;;;;;;5069698;28;20211;-72
2022/12/18 06:05:23;;;;;;;102.80;24.15;;;;;;;;;;5073460;28;20292;-72
2022/12/18 06:07:50;;;;;;;95.00;23.33;;;;;;;;;;5073903;28;20229;-72
2022/12/18 06:10:18;;;;;;;94.68;20.70;;;;;;;;;;5073105;28;20319;-72
2022/12/18 06:12:46;;;;;;;94.40;20.30;;;;;;;;;;5073510;28;20227;-72
2022/12/18 06:15:13;;;;;;;95.95;21.00;;;;;;;;;;5073697;28;20287;-72
2022/12/18 06:17:40;;;;;;;87.80;18.88;;;;;;;;;;5073560;28;20207;-72
2022/12/18 06:20:08;;;;;;;87.53;18.85;;;;;;;;;;5072832;28;20826;-72
2022/12/18 06:22:35;;;;;;;84.53;17.58;;;;;;;;;;5073321;28;20212;-72
2022/12/18 06:25:02;;;;;;;88.45;19.17;;;;;;;;;;5073031;28;20209;-72
2022/12/18 06:27:33;;;;;;;89.53;19.60;;;;;;;;;;5073559;28;20717;-72
2022/12/18 06:30:00;;;;;;;91.72;21.02;;;;;;;;;;5072526;28;20225;-72
2022/12/18 06:32:27;;;;;;;89.43;19.05;;;;;;;;;;5073265;28;20209;-72
2022/12/18 06:34:55;;;;;;;82.10;16.05;;;;;;;;;;5070218;28;20205;-72
2022/12/18 06:37:24;;;;;;;92.70;20.00;;;;;;;;;;5073208;28;20255;-72
2022/12/18 06:39:51;;;;;;;84.95;18.15;;;;;;;;;;5072499;28;20209;-72
2022/12/18 06:42:18;;;;;;;93.45;19.58;;;;;;;;;;5072937;28;20209;-72
2022/12/18 06:44:47;;;;;;;107.03;25.20;;;;;;;;;;5072548;28;20212;-72
2022/12/18 06:47:14;;;;;;;105.05;24.40;;;;;;;;;;5073118;28;20725;-72
2022/12/18 06:49:41;;;;;;;110.40;29.33;;;;;;;;;;5072400;28;20216;-72
2022/12/18 06:52:08;;;;;;;98.63;23.35;;;;;;;;;;5072648;28;20205;-72
2022/12/18 06:54:35;;;;;;;88.25;18.45;;;;;;;;;;5073010;28;20697;-72
2022/12/18 06:57:02;;;;;;;88.63;19.55;;;;;;;;;;5072577;28;20204;-72
2022/12/18 06:59:30;;;;;;;88.80;18.85;;;;;;;;;;5072368;28;20666;-72
2022/12/18 07:01:58;;;;;;;88.93;19.83;;;;;;;;;;5072667;28;20225;-72
2022/12/18 07:04:29;;;;;;;95.43;19.15;;;;;;;;;;5071386;28;20206;-72
2022/12/18 07:06:56;;;;;;;97.80;20.75;;;;;;;;;;5063180;28;20221;-72
2022/12/18 07:09:23;;;;;;;94.85;20.40;;;;;;;;;;5051999;28;20585;-72
2022/12/18 07:11:50;;;;;;;89.53;18.33;;;;;;;;;;5052412;28;20336;-72
2022/12/18 07:14:17;;;;;;;88.18;18.85;;;;;;;;;;5053047;28;20216;-72
2022/12/18 07:16:44;;;;;;;88.25;18.40;;;;;;;;;;5052644;28;20581;-72
2022/12/18 07:19:12;;;;;;;93.32;17.77;;;;;;;;;;5051904;28;20213;-72
2022/12/18 07:21:39;;;;;;;92.82;18.38;;;;;;;;;;5052100;28;20273;-72
2022/12/18 07:24:07;;;;;;;93.18;18.67;;;;;;;;;;5052339;28;20205;-72
2022/12/18 07:26:34;;;;;;;86.65;18.33;;;;;;;;;;5052391;28;20216;-72
2022/12/18 07:29:02;;;;;;;94.55;22.48;;;;;;;;;;5051586;28;20213;-72
2022/12/18 07:31:29;;;;;;;92.72;20.38;;;;;;;;;;5052559;28;20249;-72
2022/12/18 07:33:56;;;;;;;93.68;20.55;;;;;;;;;;5051963;28;20213;-72
2022/12/18 07:36:24;;;;;;;93.40;18.77;;;;;;;;;;5052007;28;20670;-72
2022/12/18 07:38:52;;;;;;;94.40;17.75;;;;;;;;;;5057103;28;20231;-72
2022/12/18 07:41:20;;;;;;;85.80;17.35;;;;;;;;;;5071909;28;20229;-72
2022/12/18 07:43:47;;;;;;;90.68;19.40;;;;;;;;;;5072276;28;20224;-72
2022/12/18 07:46:15;;;;;;;99.20;20.75;;;;;;;;;;5072123;28;20295;-72
2022/12/18 07:48:42;;;;;;;93.40;20.05;;;;;;;;;;5071507;28;20229;-72
2022/12/18 07:51:10;;;;;;;102.63;22.30;;;;;;;;;;5071692;28;20221;-72
2022/12/18 07:53:38;;;;;;;92.85;19.10;;;;;;;;;;5072101;28;20211;-72
2022/12/18 07:56:06;;;;;;;96.47;20.25;;;;;;;;;;5072136;28;20207;-72
2022/12/18 07:58:34;;;;;;;91.47;19.67;;;;;;;;;;5070702;28;20208;-72
2022/12/18 08:01:04;;;;;;;92.57;20.73;;;;;;;;;;5071821;28;20612;-72
2022/12/18 08:03:31;;;;;;;86.60;19.88;;;;;;;;;;5071586;28;20217;-72
2022/12/18 08:06:00;;;;;;;93.25;20.23;;;;;;;;;;5071982;28;20201;-72
2022/12/18 08:08:27;;;;;;;93.45;21.45;;;;;;;;;;5070932;28;20232;-72
2022/12/18 08:10:55;;;;;;;91.90;21.80;;;;;;;;;;5061354;28;20244;-72
2022/12/18 08:13:22;;;;;;;91.10;21.48;;;;;;;;;;5051372;28;20284;-72
2022/12/18 08:15:57;;;;;;;93.75;22.90;;;;;;;;;;5051538;28;20209;-72
2022/12/18 08:18:24;;;;;;;97.38;24.02;;;;;;;;;;5050954;28;20197;-72
2022/12/18 08:20:51;;;;;;;93.03;19.75;;;;;;;;;;5050786;28;20232;-72
2022/12/18 08:23:18;;;;;;;90.32;20.45;;;;;;;;;;5051487;28;20209;-72
2022/12/18 08:25:45;;;;;;;101.68;21.60;;;;;;;;;;5051402;28;20590;-72
2022/12/18 08:28:14;;;;;;;97.43;22.65;;;;;;;;;;5051366;28;20236;-72
2022/12/18 08:30:42;;;;;;;97.68;22.50;;;;;;;;;;5050741;28;20233;-72
2022/12/18 08:33:09;;;;;;;96.40;25.10;;;;;;;;;;5051353;28;20210;-72
2022/12/18 08:35:37;;;;;;;88.97;22.20;;;;;;;;;;5051323;28;20670;-72
2022/12/18 08:38:04;;;;;;;100.22;24.50;;;;;;;;;;5068560;28;20589;-72
2022/12/18 08:40:31;;;;;;;95.55;22.02;;;;;;;;;;5070671;28;20225;-72
2022/12/18 08:45:45;;;;;;;100.55;26.58;;;;;;;;;;5071453;28;20563;-72
2022/12/18 08:48:12;;;;;;;93.45;23.23;;;;;;;;;;5071271;28;20228;-72
2022/12/18 08:50:39;;;;;;;101.15;25.42;;;;;;;;;;5070346;28;20232;-72
2022/12/18 08:53:06;;;;;;;104.50;25.08;;;;;;;;;;5071055;28;20209;-72
2022/12/18 08:55:33;;;;;;;105.57;28.58;;;;;;;;;;5071287;28;20205;-72
2022/12/18 08:58:00;;;;;;;109.00;28.92;;;;;;;;;;5071154;28;20205;-72
2022/12/18 09:00:27;;;;;;;103.78;27.58;;;;;;;;;;5070511;28;20243;-72
2022/12/18 09:02:56;;;;;;;106.97;28.90;;;;;;;;;;5070985;28;20201;-72
2022/12/18 09:05:23;;;;;;;97.82;26.30;;;;;;;;;;5071226;28;20201;-72
2022/12/18 09:07:50;;;;;;;104.63;28.95;;;;;;;;;;5070943;28;20397;-72
2022/12/18 09:10:17;;;;;;;99.60;25.35;;;;;;;;;;5070949;28;20603;-72
2022/12/18 09:12:44;;;;;;;98.65;26.30;;;;;;;;;;5074111;28;20303;-72
2022/12/18 09:15:11;;;;;;;102.85;26.52;;;;;;;;;;5054302;28;20217;-72
2022/12/18 09:17:38;;;;;;;98.15;26.08;;;;;;;;;;5054645;28;20666;-72
2022/12/18 09:20:08;;;;;;;112.40;29.65;;;;;;;;;;5054172;28;20226;-73
2022/12/18 09:22:35;;;;;;;103.93;29.30;;;;;;;;;;5054646;28;20210;-74
2022/12/18 09:25:03;;;;;;;105.10;28.17;;;;;;;;;;5054463;28;20228;-74
2022/12/18 09:27:30;;;;;;;104.05;26.65;;;;;;;;;;5054925;28;20240;-72
2022/12/18 09:29:57;;;;;;;107.15;27.85;;;;;;;;;;5053949;28;20226;-73
2022/12/18 09:32:24;;;;;;;99.60;26.67;;;;;;;;;;5054718;28;20213;-72
2022/12/18 09:34:51;;;;;;;99.47;27.45;;;;;;;;;;5054121;28;20581;-72
2022/12/18 09:37:20;;;;;;;101.20;27.80;;;;;;;;;;5054677;28;20214;-73
2022/12/18 09:39:47;;;;;;;109.28;29.23;;;;;;;;;;5053658;28;20205;-72
2022/12/18 09:42:19;;;;;;;101.65;27.48;;;;;;;;;;5054267;28;20296;-73
2022/12/18 09:44:49;;;;;;;105.47;26.67;;;;;;;;;;5053758;28;20206;-73
2022/12/18 09:47:19;;;;;;;101.35;28.13;;;;;;;;;;5074454;28;20205;-72
2022/12/18 09:49:47;;;;;;;101.20;25.08;;;;;;;;;;5073586;28;20201;-72
2022/12/18 09:52:17;;;;;;;107.90;26.75;;;;;;;;;;5074206;28;20213;-72
2022/12/18 09:54:48;;;;;;;104.20;27.70;;;;;;;;;;5073696;28;20212;-73
2022/12/18 09:57:16;;;;;;;100.78;27.33;;;;;;;;;;5074577;28;20227;-73
2022/12/18 09:59:44;;;;;;;102.25;26.88;;;;;;;;;;5073210;28;20202;-73
2022/12/18 10:02:15;;;;;;;108.35;27.42;;;;;;;;;;5073996;28;20209;-73
2022/12/18 10:04:42;;;;;;;105.32;28.23;;;;;;;;;;5073771;28;20223;-73
2022/12/18 10:07:11;;;;;;;100.82;27.00;;;;;;;;;;5074184;28;20587;-72
2022/12/18 10:09:40;;;;;;;101.50;28.35;;;;;;;;;;5073203;28;20320;-72
2022/12/18 10:12:11;;;;;;;106.78;29.40;;;;;;;;;;5073881;28;20201;-73
2022/12/18 10:14:42;;;;;;;105.07;30.17;;;;;;;;;;5073121;28;20200;-73
2022/12/18 10:17:15;;;;;;;101.47;26.80;;;;;;;;;;5070130;28;20213;-73
2022/12/18 10:19:48;;;;;;;99.15;27.83;;;;;;;;;;5072959;28;20206;-73
2022/12/18 10:22:20;;;;;;;101.97;29.90;;;;;;;;;;5073494;28;20206;-73
2022/12/18 10:24:52;;;;;;;106.53;31.63;;;;;;;;;;5073332;28;20604;-73
2022/12/18 10:27:24;;;;;;;99.32;27.48;;;;;;;;;;5073501;28;20290;-74
2022/12/18 10:29:51;;;;;;;99.97;28.38;;;;;;;;;;5072820;28;20230;-74
2022/12/18 10:32:19;;;;;;;97.60;27.27;;;;;;;;;;5073558;28;20205;-74
2022/12/18 10:34:47;;;;;;;91.38;25.50;;;;;;;;;;5073341;28;20708;-74
2022/12/18 10:37:17;;;;;;;96.77;28.50;;;;;;;;;;5073353;28;20205;-74
2022/12/18 10:39:44;;;;;;;95.32;27.20;;;;;;;;;;5072455;28;20492;-74
2022/12/18 10:42:12;;;;;;;92.70;26.60;;;;;;;;;;5073279;28;20209;-74
2022/12/18 10:44:41;;;;;;;95.40;27.00;;;;;;;;;;5073315;28;20448;-74
2022/12/18 10:47:12;;;;;;;104.93;28.00;;;;;;;;;;5067027;28;20593;-74
2022/12/18 10:49:43;;;;;;;101.27;26.17;;;;;;;;;;5052443;28;20484;-75
2022/12/18 10:52:14;;;;;;;91.63;25.47;;;;;;;;;;5053183;28;20452;-75
2022/12/18 10:54:41;;;;;;;93.20;24.33;;;;;;;;;;5052878;28;20470;-74
2022/12/18 10:57:16;;;;;;;94.15;25.30;;;;;;;;;;5052890;28;20459;-74
2022/12/18 10:59:51;;;;;;;95.28;25.40;;;;;;;;;;5052179;28;20783;-75
2022/12/18 11:02:26;;;;;;;91.88;23.90;;;;;;;;;;5052956;28;20206;-75
2022/12/18 11:04:54;;;;;;;90.20;20.55;;;;;;;;;;5052456;28;20214;-75
2022/12/18 11:07:21;;;;;;;96.07;24.08;;;;;;;;;;5053012;28;20210;-75
2022/12/18 11:10:01;;;;;;;89.70;22.20;;;;;;;;;;5052111;28;20232;-75
2022/12/18 11:12:29;;;;;;;91.10;23.42;;;;;;;;;;5052825;28;20212;-74
2022/12/18 11:14:59;;;;;;;91.68;23.25;;;;;;;;;;5052605;28;20216;-74
2022/12/18 11:17:29;;;;;;;94.30;24.50;;;;;;;;;;5052467;28;20303;-72
2022/12/18 11:19:56;;;;;;;92.50;22.80;;;;;;;;;;5048962;28;20278;-72
2022/12/18 11:22:26;;;;;;;91.05;21.85;;;;;;;;;;5052682;28;20209;-72
2022/12/18 11:24:54;;;;;;;87.43;21.83;;;;;;;;;;5052227;28;20220;-72
2022/12/18 11:27:22;;;;;;;91.35;21.88;;;;;;;;;;5052439;28;20209;-73
2022/12/18 11:29:51;;;;;;;91.18;22.75;;;;;;;;;;5051462;28;20231;-72
2022/12/18 11:32:25;;;;;;;95.68;24.25;;;;;;;;;;5052376;28;20209;-73
2022/12/18 11:34:56;;;;;;;93.15;23.48;;;;;;;;;;5051802;28;20215;-73
2022/12/18 11:37:24;;;;;;;94.20;22.90;;;;;;;;;;5052287;28;20211;-73
2022/12/18 11:39:53;;;;;;;93.00;23.50;;;;;;;;;;5051584;28;20583;-73
2022/12/18 11:42:22;;;;;;;90.10;23.00;;;;;;;;;;5052045;28;20211;-73
2022/12/18 11:44:52;;;;;;;91.45;22.58;;;;;;;;;;5052108;28;20644;-72
2022/12/18 11:47:25;;;;;;;92.03;22.88;;;;;;;;;;5052641;28;20564;-73
2022/12/18 11:49:54;;;;;;;90.85;22.80;;;;;;;;;;5049462;28;20226;-73
2022/12/18 11:52:24;;;;;;;94.55;23.58;;;;;;;;;;5052134;28;20210;-72
2022/12/18 11:54:53;;;;;;;91.50;22.73;;;;;;;;;;5051677;28;20209;-72
2022/12/18 11:57:24;;;;;;;94.25;24.20;;;;;;;;;;5051879;28;20213;-73
2022/12/18 11:59:54;;;;;;;86.70;21.30;;;;;;;;;;5051222;28;20675;-72
2022/12/18 12:02:28;;;;;;;92.43;24.30;;;;;;;;;;5052029;28;20210;-73
2022/12/18 12:05:06;;;;;;;90.40;22.30;;;;;;;;;;5051738;28;20215;-73
2022/12/18 12:07:40;;;;;;;87.03;19.73;;;;;;;;;;5051523;28;20236;-72
2022/12/18 12:10:13;;;;;;;94.53;22.90;;;;;;;;;;5051102;28;20240;-72
2022/12/18 12:12:54;;;;;;;89.20;23.10;;;;;;;;;;5051774;28;20696;-73
2022/12/18 12:15:29;;;;;;;88.20;22.35;;;;;;;;;;5051548;28;20209;-75
2022/12/18 12:17:59;;;;;;;90.35;23.27;;;;;;;;;;5051390;28;20208;-72
2022/12/18 12:20:33;;;;;;;94.75;23.45;;;;;;;;;;5050905;28;20597;-74
2022/12/18 12:23:02;;;;;;;88.22;22.00;;;;;;;;;;5071221;28;20214;-74
2022/12/18 12:25:34;;;;;;;88.18;20.90;;;;;;;;;;5071386;28;20216;-75
2022/12/18 12:28:07;;;;;;;87.30;20.55;;;;;;;;;;5071450;28;20578;-75
2022/12/18 12:30:37;;;;;;;91.53;22.17;;;;;;;;;;5070440;28;20239;-75
2022/12/18 12:33:09;;;;;;;88.97;21.70;;;;;;;;;;5071638;28;20456;-73
2022/12/18 12:35:45;;;;;;;87.35;20.15;;;;;;;;;;5071587;28;20455;-74
2022/12/18 12:38:13;;;;;;;85.95;20.83;;;;;;;;;;5071457;28;20261;-74
2022/12/18 12:40:44;;;;;;;92.18;23.45;;;;;;;;;;5070708;28;20232;-75
2022/12/18 12:43:20;;;;;;;84.97;21.00;;;;;;;;;;5071361;28;20619;-75
2022/12/18 12:45:50;;;;;;;89.07;21.17;;;;;;;;;;5074801;28;20283;-74
2022/12/18 12:48:19;;;;;;;93.25;22.95;;;;;;;;;;5074865;28;20208;-74
2022/12/18 12:50:48;;;;;;;89.97;22.67;;;;;;;;;;5074340;28;20234;-74
2022/12/18 12:53:21;;;;;;;92.63;21.85;;;;;;;;;;5072377;28;20207;-74
2022/12/18 12:55:48;;;;;;;89.13;22.23;;;;;;;;;;5074963;28;20211;-75
2022/12/18 12:58:17;;;;;;;91.60;22.65;;;;;;;;;;5075464;28;20679;-75
2022/12/18 13:00:49;;;;;;;83.60;20.00;;;;;;;;;;5074628;28;20727;-75
2022/12/18 13:03:20;;;;;;;91.03;22.00;;;;;;;;;;5075663;28;20216;-76
2022/12/18 13:05:51;;;;;;;89.38;22.95;;;;;;;;;;5075127;28;20204;-75
2022/12/18 13:08:24;;;;;;;89.18;21.40;;;;;;;;;;5075294;28;20215;-74
2022/12/18 13:12:55;;;;;;;89.65;21.10;;;;;;;;;;5074341;28;20265;-75
2022/12/18 13:13:48;;;;;;;89.28;21.02;;;;;;;;;;5074761;28;20204;-74
2022/12/18 13:16:20;;;;;;;86.40;19.25;;;;;;;;;;5074787;28;20616;-75
2022/12/18 13:18:50;;;;;;;89.35;21.70;;;;;;;;;;5074615;28;20626;-78
2022/12/18 13:21:23;;;;;;;87.57;22.85;;;;;;;;;;5075008;28;20228;-76
2022/12/18 13:23:50;;;;;;;91.75;22.25;;;;;;;;;;5074650;28;20279;-75
2022/12/18 13:26:31;;;;;;;92.45;23.83;;;;;;;;;;5074416;28;20216;-76
2022/12/18 13:28:59;;;;;;;93.47;24.00;;;;;;;;;;5074305;28;20224;-75
2022/12/18 13:31:45;;;;;;;89.07;22.23;;;;;;;;;;5074452;28;20235;-76
2022/12/18 13:34:17;;;;;;;88.82;21.67;;;;;;;;;;5075709;28;20208;-77
2022/12/18 13:36:46;;;;;;;91.00;23.02;;;;;;;;;;5077342;28;20673;-75
2022/12/18 13:39:34;;;;;;;88.45;20.20;;;;;;;;;;5074107;28;20211;-74
2022/12/18 13:45:28;;;;;;;92.47;21.83;;;;;;;;;;5051115;28;20208;-76
2022/12/18 13:47:55;;;;;;;88.40;21.83;;;;;;;;;;5077478;28;20223;-77
2022/12/18 13:50:26;;;;;;;89.82;22.38;;;;;;;;;;5073969;28;20602;-76
2022/12/18 13:52:55;;;;;;;89.70;21.35;;;;;;;;;;5074357;28;20218;-76
2022/12/18 13:55:23;;;;;;;90.55;23.33;;;;;;;;;;5074284;28;20209;-75
2022/12/18 13:57:50;;;;;;;91.45;21.58;;;;;;;;;;5073442;28;20213;-75
2022/12/18 14:00:28;;;;;;;89.05;20.80;;;;;;;;;;5073624;28;20217;-76
2022/12/18 14:02:55;;;;;;;89.85;21.13;;;;;;;;;;5074225;28;20211;-76
2022/12/18 14:05:23;;;;;;;90.55;22.20;;;;;;;;;;5074441;28;20233;-76
2022/12/18 14:07:51;;;;;;;94.70;22.85;;;;;;;;;;5074139;28;20270;-76
2022/12/18 14:10:19;;;;;;;90.13;21.55;;;;;;;;;;5073436;28;20231;-76
2022/12/18 14:13:00;;;;;;;85.80;22.42;;;;;;;;;;5073945;28;20225;-76
2022/12/18 14:15:33;;;;;;;94.28;21.75;;;;;;;;;;5074182;28;20288;-76
2022/12/18 14:18:01;;;;;;;92.25;21.48;;;;;;;;;;5074250;28;20305;-75
2022/12/18 14:20:29;;;;;;;96.83;27.13;;;;;;;;;;5061061;28;20435;-72
2022/12/18 14:22:57;;;;;;;92.47;24.52;;;;;;;;;;5062960;28;20456;-73
2022/12/18 14:25:26;;;;;;;92.80;25.15;;;;;;;;;;5056156;28;20220;-73
2022/12/18 14:27:54;;;;;;;93.78;22.92;;;;;;;;;;5053554;28;20211;-72
2022/12/18 14:30:28;;;;;;;87.38;20.98;;;;;;;;;;5052972;28;20229;-73